createdAt,value
2023-01-04T00:03:40.862Z,67.30
2023-01-04T00:08:44.854Z,67.10
2023-01-04T00:13:50.911Z,67.20
2023-01-04T00:18:56.143Z,67.40
2023-01-04T00:24:01.612Z,67.50
2023-01-04T00:29:08.231Z,67.50
2023-01-04T00:34:13.910Z,67.30
2023-01-04T00:39:18.302Z,67.20
2023-01-04T00:44:23.014Z,67.30
2023-01-04T00:49:27.290Z,67.40
2023-01-04T00:54:30.735Z,67.40
2023-01-04T00:59:35.530Z,67.20
2023-01-04T01:04:38.945Z,67.40
2023-01-04T01:09:42.339Z,67.20
2023-01-04T01:14:47.263Z,67.20
2023-01-04T01:19:50.935Z,67.10
2023-01-04T01:24:54.323Z,67.00
2023-01-04T01:29:59.539Z,67.30
2023-01-04T01:35:02.987Z,67.60
2023-01-04T01:40:07.440Z,67.70
2023-01-04T01:45:26.951Z,67.60
2023-01-04T01:50:36.640Z,67.60
2023-01-04T01:55:41.554Z,67.30
2023-01-04T02:00:46.403Z,67.50
2023-01-04T02:05:53.285Z,67.60
2023-01-04T02:10:57.126Z,67.40
2023-01-04T02:16:10.994Z,67.20
2023-01-04T02:21:22.882Z,67.20
2023-01-04T02:26:58.257Z,67.30
2023-01-04T02:32:06.811Z,67.20
2023-01-04T02:37:18.751Z,67.20
2023-01-04T02:42:50.612Z,67.10
2023-01-04T02:48:12.172Z,67.10
2023-01-04T02:53:20.992Z,67.20
2023-01-04T02:58:42.558Z,67.30
2023-01-04T03:04:14.536Z,67.30
2023-01-04T03:09:22.733Z,67.40
2023-01-04T03:14:31.594Z,67.50
2023-01-04T03:19:54.055Z,67.60
2023-01-04T03:25:16.305Z,67.70
2023-01-04T03:30:39.655Z,67.90
2023-01-04T03:35:48.897Z,68.00
2023-01-04T03:41:19.410Z,67.90
2023-01-04T03:46:49.590Z,68.30
2023-01-04T03:51:58.501Z,68.40
2023-01-04T03:57:03.842Z,68.40
2023-01-04T04:02:10.503Z,68.60
2023-01-04T04:07:32.861Z,68.50
2023-01-04T04:12:36.274Z,68.50
2023-01-04T04:17:39.694Z,68.50
2023-01-04T04:22:44.441Z,68.70
2023-01-04T04:27:47.869Z,68.80
2023-01-04T04:32:51.326Z,68.90
2023-01-04T04:37:56.203Z,68.90
2023-01-04T04:42:59.894Z,69.00
2023-01-04T04:48:03.355Z,69.10
2023-01-04T04:53:08.150Z,69.00
2023-01-04T04:58:11.580Z,69.00
2023-01-04T05:03:15.011Z,69.10
2023-01-04T05:08:19.921Z,69.20
2023-01-04T05:13:23.905Z,69.20
2023-01-04T05:18:27.298Z,69.40
2023-01-04T05:23:32.080Z,69.50
2023-01-04T05:28:35.510Z,69.70
2023-01-04T05:33:39.104Z,69.90
2023-01-04T05:38:43.903Z,69.90
2023-01-04T05:43:47.572Z,69.90
2023-01-04T05:48:51.108Z,69.90
2023-01-04T05:53:55.810Z,70.10
2023-01-04T05:58:59.213Z,69.90
2023-01-04T06:04:02.692Z,69.90
2023-01-04T06:09:07.804Z,70.10
2023-01-04T06:14:11.545Z,70.30
2023-01-04T06:19:14.956Z,70.40
2023-01-04T06:24:19.891Z,70.70
2023-01-04T06:29:23.597Z,70.60
2023-01-04T06:34:30.769Z,70.70
2023-01-04T06:39:37.377Z,70.90
2023-01-04T06:44:40.805Z,71.30
2023-01-04T06:49:44.257Z,71.70
2023-01-04T06:54:49.095Z,72.30
2023-01-04T06:59:52.527Z,72.50
2023-01-04T07:04:56.237Z,72.60
2023-01-04T07:10:05.402Z,72.80
2023-01-04T07:15:39.636Z,73.00
2023-01-04T07:20:37.431Z,73.20
2023-01-04T07:25:42.228Z,73.40
2023-01-04T07:30:45.703Z,73.30
2023-01-04T07:35:49.744Z,73.20
2023-01-04T07:40:57.155Z,73.20
2023-01-04T07:46:01.181Z,73.10
2023-01-04T07:51:04.771Z,73.20
2023-01-04T07:56:15.185Z,73.20
2023-01-04T08:01:21.909Z,73.30
2023-01-04T08:06:25.477Z,73.30
2023-01-04T08:11:30.359Z,73.20
2023-01-04T08:16:35.795Z,73.10
2023-01-04T08:21:39.908Z,73.30
2023-01-04T08:26:45.324Z,73.20
2023-01-04T08:31:48.822Z,73.60
2023-01-04T08:36:53.415Z,73.40
2023-01-04T08:42:06.789Z,73.40
2023-01-04T08:47:14.511Z,73.40
2023-01-04T08:52:18.177Z,73.30
2023-01-04T08:57:22.919Z,73.40
2023-01-04T09:02:28.738Z,73.30
2023-01-04T09:07:33.014Z,73.20
2023-01-04T09:12:38.050Z,73.30
2023-01-04T09:17:58.011Z,73.10
2023-01-04T09:23:04.724Z,73.00
2023-01-04T09:28:09.470Z,72.90
2023-01-04T09:33:12.972Z,72.80
2023-01-04T09:38:16.378Z,72.80
2023-01-04T09:43:23.547Z,72.70
2023-01-04T09:48:29.861Z,72.50
2023-01-04T09:53:40.471Z,72.40
2023-01-04T09:58:46.345Z,72.30
2023-01-04T10:03:59.280Z,72.10
2023-01-04T10:09:05.720Z,71.70
2023-01-04T10:14:31.299Z,71.50
2023-01-04T10:25:32.251Z,71.30
2023-01-04T10:30:46.058Z,71.10
2023-01-04T10:35:50.547Z,71.10
2023-01-04T10:40:57.323Z,71.10
2023-01-04T10:46:12.162Z,70.50
2023-01-04T10:51:21.207Z,70.40
2023-01-04T10:56:30.877Z,70.20
2023-01-04T11:01:41.226Z,69.80
2023-01-04T11:06:50.003Z,69.60
2023-01-04T11:11:56.750Z,68.80
2023-01-04T11:17:05.803Z,68.20
2023-01-04T11:22:15.759Z,67.80
2023-01-04T11:27:26.897Z,67.60
2023-01-04T11:32:40.427Z,67.50
2023-01-04T11:37:43.678Z,67.50
2023-01-04T11:42:48.635Z,66.60
2023-01-04T11:47:55.382Z,66.60
2023-01-04T11:52:58.870Z,65.70
2023-01-04T11:58:09.547Z,65.80
2023-01-04T12:03:16.239Z,66.30
2023-01-04T12:08:30.407Z,66.40
2023-01-04T12:13:35.219Z,66.60
2023-01-04T12:18:42.861Z,66.60
2023-01-04T12:23:46.954Z,66.00
2023-01-04T12:28:53.736Z,65.00
2023-01-04T12:34:00.883Z,65.40
2023-01-04T12:39:07.347Z,65.10
2023-01-04T12:44:46.942Z,64.60
2023-01-04T12:50:02.907Z,64.10
2023-01-04T12:55:44.139Z,63.70
2023-01-04T13:01:25.087Z,63.70
2023-01-04T13:06:32.974Z,63.60
2023-01-04T13:12:12.671Z,64.00
2023-01-04T13:17:20.337Z,64.60
2023-01-04T13:22:29.835Z,64.90
2023-01-04T13:27:34.188Z,65.40
2023-01-04T13:33:15.123Z,65.90
2023-01-04T13:38:05.572Z,66.40
2023-01-04T13:43:25.460Z,66.50
2023-01-04T13:48:36.654Z,66.60
2023-01-04T13:53:42.185Z,67.60
2023-01-04T13:58:45.893Z,66.80
2023-01-04T14:03:52.781Z,66.90
2023-01-04T14:09:07.729Z,67.20
2023-01-04T14:14:26.193Z,67.80
2023-01-04T14:19:43.963Z,68.40
2023-01-04T14:30:23.786Z,69.00
2023-01-04T14:35:28.814Z,69.30
2023-01-04T14:40:33.658Z,69.60
2023-01-04T14:45:37.100Z,70.00
2023-01-04T14:50:40.603Z,70.60
2023-01-04T14:55:45.396Z,71.00
2023-01-04T15:00:49.044Z,71.80
2023-01-04T15:05:52.758Z,72.10
2023-01-04T15:11:00.131Z,72.50
2023-01-04T15:16:04.028Z,72.40
2023-01-04T15:21:08.157Z,72.30
2023-01-04T15:26:13.650Z,72.00
2023-01-04T15:31:19.737Z,71.90
2023-01-04T15:36:27.579Z,71.90
2023-01-04T15:41:49.885Z,71.80
2023-01-04T15:46:54.240Z,71.60
2023-01-04T15:51:57.839Z,71.50
2023-01-04T15:57:02.559Z,71.50
2023-01-04T16:02:06.392Z,71.40
2023-01-04T16:07:09.932Z,71.20
2023-01-04T16:12:32.025Z,71.20
2023-01-04T16:17:36.579Z,72.20
2023-01-04T16:22:40.644Z,71.20
2023-01-04T16:27:45.622Z,71.30
2023-01-04T16:32:50.166Z,71.30
2023-01-04T16:37:53.554Z,71.30
2023-01-04T16:42:58.312Z,71.40
2023-01-04T16:48:01.984Z,71.30
2023-01-04T16:53:05.431Z,71.30
2023-01-04T16:58:10.595Z,72.50
2023-01-04T17:03:15.857Z,71.50
2023-01-04T17:08:26.728Z,71.60
2023-01-04T17:13:31.837Z,71.50
2023-01-04T17:18:37.856Z,71.40
2023-01-04T17:23:43.686Z,71.60
2023-01-04T17:28:48.628Z,71.50
2023-01-04T17:33:53.073Z,71.50
2023-01-04T17:38:56.699Z,71.60
2023-01-04T17:44:03.108Z,71.70
2023-01-04T17:49:22.063Z,72.20
2023-01-04T17:54:27.046Z,71.70
2023-01-04T17:59:31.906Z,71.60
2023-01-04T18:04:35.276Z,71.50
2023-01-04T18:09:38.717Z,71.40
2023-01-04T18:14:43.456Z,71.50
2023-01-04T18:19:46.929Z,71.10
2023-01-04T18:24:50.410Z,71.40
2023-01-04T18:29:56.905Z,71.20
2023-01-04T18:35:04.485Z,71.10
2023-01-04T18:40:09.716Z,71.10
2023-01-04T18:45:14.504Z,70.90
2023-01-04T18:50:19.173Z,70.80
2023-01-04T18:55:22.580Z,70.80
2023-01-04T19:00:30.747Z,70.80
2023-01-04T19:05:34.447Z,71.00
2023-01-04T19:10:38.061Z,71.40
2023-01-04T19:15:47.686Z,71.70
2023-01-04T19:20:51.316Z,71.90
2023-01-04T19:25:54.798Z,71.80
2023-01-04T19:30:59.555Z,71.70
2023-01-04T19:36:05.874Z,71.50
2023-01-04T19:41:15.316Z,71.40
2023-01-04T19:46:20.478Z,71.20
2023-01-04T19:51:24.969Z,71.20
2023-01-04T19:56:28.607Z,71.20
2023-01-04T20:01:34.079Z,71.10
2023-01-04T20:06:37.591Z,71.30
2023-01-04T20:11:41.393Z,71.10
2023-01-04T20:16:46.805Z,71.00
2023-01-04T20:21:50.409Z,70.70
2023-01-04T20:26:53.937Z,70.70
2023-01-04T20:32:00.783Z,70.50
2023-01-04T20:37:04.535Z,70.30
2023-01-04T20:42:25.685Z,70.30
2023-01-04T20:47:31.059Z,70.20
2023-01-04T20:52:34.524Z,70.20
2023-01-04T20:57:37.910Z,70.20
2023-01-04T21:02:43.253Z,71.10
2023-01-04T21:07:46.820Z,70.20
2023-01-04T21:12:50.283Z,71.10
2023-01-04T21:17:55.017Z,70.30
2023-01-04T21:22:58.452Z,70.30
2023-01-04T21:28:02.946Z,70.50
2023-01-04T21:33:07.896Z,70.60
2023-01-04T21:38:11.873Z,70.70
2023-01-04T21:43:17.357Z,70.80
2023-01-04T21:48:22.477Z,70.90
2023-01-04T21:53:26.222Z,71.00
2023-01-04T21:58:30.549Z,71.20
2023-01-04T22:03:35.956Z,71.40
2023-01-04T22:08:39.599Z,71.20
2023-01-04T22:13:43.784Z,71.10
2023-01-04T22:18:49.644Z,70.80
2023-01-04T22:23:54.549Z,70.60
2023-01-04T22:28:58.197Z,70.30
2023-01-04T22:34:03.001Z,70.10
2023-01-04T22:39:06.995Z,70.10
2023-01-04T22:44:12.251Z,70.10
2023-01-04T22:49:17.066Z,69.90
2023-01-04T22:54:20.748Z,69.90
2023-01-04T22:59:25.276Z,69.70
2023-01-04T23:04:30.944Z,69.60
2023-01-04T23:09:34.482Z,69.50
2023-01-04T23:14:38.217Z,69.60
2023-01-04T23:19:42.994Z,69.70
2023-01-04T23:24:46.716Z,69.80
2023-01-04T23:29:50.165Z,70.10
2023-01-04T23:34:54.966Z,70.40
2023-01-04T23:39:58.372Z,70.20
2023-01-04T23:45:01.772Z,69.80
2023-01-04T23:50:07.225Z,70.00
2023-01-04T23:55:10.945Z,70.10
